Terminal Aerodrome Forecast
Issued by NWS

Home | Current Version | Previous Version | Text Only | Print | Product List | Glossary Off
Versions: 1 2 3 4 5 6 7 8 9 10 11 12 13 14 15 16 17 18 19 20 21 22 23 24

000
FTUS43 KABR 240700 AAA
TAFATY
TAF AMD
KATY 240712Z 2407/2506 33019G27KT P6SM OVC025
     FM241000 34023G31KT P6SM OVC025
     FM242000 33019G28KT P6SM SCT030
     FM250200 32011KT P6SM FEW250=

USA.gov is the U.S. government's official web portal to all federal, state and local government web resources and services.